Laguna Heights, Texas
Current Conditions -  °F | °C
As of 8:53 AM on Thursday 30 Oct 2014 (Local Time) from KPIL Reporting Station
Haze Haze  
Wind Chill: 75°   Ceiling: Unl
Heat Index: 75°   Visibility: 5mi
Dew Point: 71°   Wind: 0mph
Humidity: 87%   Direction: NA
Pressure: 30.08"   Gusts: NA
Location:  26.0776°N, 97.3389°W
Report Text: KPIL 301353Z AUTO 00000KT 5SM BR CLR 24/22 A3008 RMK AO2 SLP185 T02390217
Loading
Personal Weather Stations






























Interactive Weather Map
Tropical Storm Tracking
New forecast layout! Learn more

10-Day Weather Forecast

Advertisements
Track Severe Weather on mobile